createdAt,value
2023-04-19T04:01:27.073Z,11.40
2023-04-19T04:03:55.030Z,11.30
2023-04-19T04:06:22.982Z,11.10
2023-04-19T04:08:50.833Z,11.10
2023-04-19T04:11:18.659Z,11.10
2023-04-19T04:13:47.030Z,11.10
2023-04-19T04:16:14.794Z,11.10
2023-04-19T04:18:44.067Z,11.20
2023-04-19T04:21:11.909Z,11.20
2023-04-19T04:23:39.697Z,11.20
2023-04-19T04:26:09.793Z,11.20
2023-04-19T04:28:39.280Z,11.20
2023-04-19T04:31:07.174Z,11.20
2023-04-19T04:33:34.928Z,11.20
2023-04-19T04:36:05.228Z,11.30
2023-04-19T04:38:33.595Z,11.30
2023-04-19T04:41:01.761Z,11.30
2023-04-19T04:43:29.820Z,11.30
2023-04-19T04:45:58.257Z,11.30
2023-04-19T04:50:54.564Z,11.30
2023-04-19T04:53:23.936Z,11.30
2023-04-19T04:55:51.843Z,11.30
2023-04-19T04:58:20.558Z,11.30
2023-04-19T05:00:48.953Z,11.30
2023-04-19T05:03:16.952Z,11.30
2023-04-19T05:05:45.319Z,11.30
2023-04-19T05:08:13.366Z,11.30
2023-04-19T05:10:42.455Z,11.40
2023-04-19T05:13:10.484Z,11.40
2023-04-19T05:15:38.548Z,11.40
2023-04-19T05:18:07.227Z,11.40
2023-04-19T05:20:35.010Z,11.40
2023-04-19T05:25:35.491Z,11.40
2023-04-19T05:28:05.244Z,11.40
2023-04-19T05:30:33.074Z,11.40
2023-04-19T05:33:01.263Z,11.40
2023-04-19T05:35:29.079Z,11.40
2023-04-19T05:37:57.092Z,11.40
2023-04-19T05:40:24.857Z,11.50
2023-04-19T05:42:52.910Z,11.50
2023-04-19T05:45:23.155Z,11.50
2023-04-19T05:47:50.966Z,11.40
2023-04-19T05:50:20.526Z,11.40
2023-04-19T05:52:48.550Z,11.50
2023-04-19T05:55:16.350Z,11.50
2023-04-19T05:57:44.140Z,11.50
2023-04-19T06:00:13.042Z,11.50
2023-04-19T06:02:43.921Z,11.50
2023-04-19T06:05:12.334Z,11.60
2023-04-19T06:07:44.014Z,11.60
2023-04-19T06:10:22.099Z,11.60
2023-04-19T06:12:51.036Z,11.50
2023-04-19T06:15:18.870Z,11.50
2023-04-19T06:17:48.265Z,11.50
2023-04-19T06:20:19.399Z,11.50
2023-04-19T06:22:47.600Z,11.50
2023-04-19T06:25:15.454Z,11.60
2023-04-19T06:27:45.245Z,11.60
2023-04-19T06:30:13.858Z,11.60
2023-04-19T06:32:42.038Z,11.50
2023-04-19T06:35:12.815Z,11.50
2023-04-19T06:37:40.601Z,11.50
2023-04-19T06:40:09.570Z,11.50
2023-04-19T06:42:37.304Z,11.50
2023-04-19T06:45:06.196Z,11.50
2023-04-19T06:47:35.709Z,11.50
2023-04-19T06:50:03.726Z,11.50
2023-04-19T06:52:32.916Z,11.60
2023-04-19T06:55:00.775Z,11.60
2023-04-19T06:57:28.627Z,11.60
2023-04-19T07:02:26.349Z,11.60
2023-04-19T07:04:54.327Z,11.60
2023-04-19T07:07:22.369Z,11.60
2023-04-19T07:09:51.547Z,11.60
2023-04-19T07:12:19.480Z,11.50
2023-04-19T07:14:47.320Z,11.40
2023-04-19T07:17:15.102Z,11.40
2023-04-19T07:19:48.488Z,11.50
2023-04-19T07:22:16.491Z,11.50
2023-04-19T07:24:44.951Z,11.50
2023-04-19T07:27:16.424Z,11.40
2023-04-19T07:29:44.230Z,11.40
2023-04-19T07:32:13.646Z,11.40
2023-04-19T07:34:43.421Z,11.40
2023-04-19T07:37:11.234Z,11.50
2023-04-19T07:39:39.160Z,11.50
2023-04-19T07:42:06.989Z,11.50
2023-04-19T07:44:36.361Z,11.50
2023-04-19T07:47:05.417Z,11.40
2023-04-19T07:49:34.257Z,11.40
2023-04-19T07:52:02.941Z,11.50
2023-04-19T07:54:32.205Z,11.60
2023-04-19T07:57:00.128Z,11.60
2023-04-19T07:59:37.581Z,11.70
2023-04-19T08:02:05.713Z,11.70
2023-04-19T08:04:33.932Z,11.80
2023-04-19T08:07:03.786Z,11.80
2023-04-19T08:09:31.606Z,11.90
2023-04-19T08:11:59.546Z,11.90
2023-04-19T08:14:37.262Z,12.10
2023-04-19T08:17:25.296Z,12.20
2023-04-19T08:19:53.736Z,12.20
2023-04-19T08:22:22.195Z,12.20
2023-04-19T08:24:51.378Z,12.20
2023-04-19T08:27:19.460Z,12.20
2023-04-19T08:29:47.473Z,12.30
2023-04-19T08:32:16.850Z,12.30
2023-04-19T08:34:44.899Z,12.30
2023-04-19T08:37:12.677Z,12.20
2023-04-19T08:42:18.302Z,12.20
2023-04-19T08:45:25.522Z,12.20
2023-04-19T08:50:35.930Z,12.30
2023-04-19T08:53:23.974Z,12.60
2023-04-19T08:56:12.257Z,12.70
2023-04-19T09:01:26.271Z,12.90
2023-04-19T09:04:20.759Z,12.90
2023-04-19T09:06:50.569Z,12.80
2023-04-19T09:09:34.888Z,12.80
2023-04-19T09:12:17.519Z,12.80
2023-04-19T09:17:18.466Z,13.10
2023-04-19T09:19:51.201Z,13.10
2023-04-19T09:22:19.498Z,13.30
2023-04-19T09:27:27.273Z,13.30
2023-04-19T09:29:55.481Z,13.40
2023-04-19T09:32:23.586Z,13.40
2023-04-19T09:37:51.421Z,13.50
2023-04-19T09:40:24.350Z,13.40
2023-04-19T09:43:05.307Z,13.30
2023-04-19T09:45:57.515Z,13.30
2023-04-19T09:48:31.941Z,13.40
2023-04-19T09:51:08.772Z,13.40
2023-04-19T09:53:41.840Z,13.40
2023-04-19T09:56:12.719Z,13.50
2023-04-19T09:58:51.293Z,13.50
2023-04-19T10:01:27.113Z,13.50
2023-04-19T10:03:55.968Z,13.50
2023-04-19T10:08:56.836Z,13.50
2023-04-19T10:11:27.250Z,13.40
2023-04-19T10:13:58.519Z,13.50
2023-04-19T10:16:27.258Z,13.50
2023-04-19T10:18:56.146Z,13.50
2023-04-19T10:21:27.279Z,13.60
2023-04-19T10:23:55.655Z,13.70
2023-04-19T10:26:23.469Z,13.70
2023-04-19T10:28:51.497Z,13.80
2023-04-19T10:31:23.542Z,13.80
2023-04-19T10:33:52.438Z,13.60
2023-04-19T10:36:21.211Z,13.50
2023-04-19T10:38:53.551Z,13.50
2023-04-19T10:41:21.759Z,13.50
2023-04-19T10:44:10.316Z,13.50
2023-04-19T10:46:40.961Z,13.50
2023-04-19T10:49:09.777Z,13.50
2023-04-19T10:51:39.467Z,13.60
2023-04-19T10:54:10.090Z,13.70
2023-04-19T10:57:00.702Z,13.70
2023-04-19T10:59:31.688Z,13.80
2023-04-19T11:02:00.972Z,14.00
2023-04-19T11:05:01.209Z,14.00
2023-04-19T11:07:29.335Z,14.00
2023-04-19T11:09:58.418Z,14.10
2023-04-19T11:12:26.479Z,14.10
2023-04-19T11:14:57.593Z,14.10
2023-04-19T11:17:27.812Z,14.10
2023-04-19T11:19:57.669Z,14.10
2023-04-19T11:22:33.292Z,14.20
2023-04-19T11:25:13.135Z,14.40
2023-04-19T11:27:42.728Z,14.50
2023-04-19T11:30:12.427Z,14.50
2023-04-19T11:32:46.603Z,14.50
2023-04-19T11:35:14.698Z,14.50
2023-04-19T11:37:42.669Z,14.50
2023-04-19T11:40:16.753Z,14.50
2023-04-19T11:42:47.571Z,14.50
2023-04-19T11:45:29.188Z,14.70
2023-04-19T11:47:57.934Z,14.70
2023-04-19T11:50:36.641Z,14.70
2023-04-19T11:53:15.856Z,14.70
2023-04-19T11:55:46.218Z,14.70
2023-04-19T11:58:29.241Z,14.70
2023-04-19T12:00:58.369Z,14.60
2023-04-19T12:03:26.979Z,14.50
2023-04-19T12:05:56.372Z,14.70
2023-04-19T12:08:35.184Z,14.80
2023-04-19T12:11:05.561Z,14.80
2023-04-19T12:13:34.319Z,14.90
2023-04-19T12:16:03.670Z,15.00
2023-04-19T12:18:48.958Z,15.00
2023-04-19T12:21:27.834Z,14.80
2023-04-19T12:23:57.663Z,14.80
2023-04-19T12:26:28.292Z,14.90
2023-04-19T12:28:56.414Z,14.80
2023-04-19T12:31:24.782Z,14.90
2023-04-19T12:33:52.979Z,14.90
2023-04-19T12:36:21.373Z,15.00
2023-04-19T12:41:17.747Z,15.00
2023-04-19T12:43:46.915Z,15.00
2023-04-19T12:46:14.689Z,17.40
2023-04-19T12:48:42.504Z,15.10
2023-04-19T12:51:10.368Z,15.10
2023-04-19T12:53:38.165Z,17.90
2023-04-19T12:56:07.503Z,15.40
2023-04-19T12:58:35.577Z,15.50
2023-04-19T13:01:04.769Z,15.60
2023-04-19T13:03:36.673Z,15.60
2023-04-19T13:06:05.007Z,15.70
2023-04-19T13:08:44.170Z,15.50
2023-04-19T13:11:14.698Z,15.40
2023-04-19T13:13:42.562Z,15.30
2023-04-19T13:16:11.824Z,15.20
2023-04-19T13:18:39.612Z,15.20
2023-04-19T13:21:08.868Z,15.20
2023-04-19T13:23:36.668Z,15.30
2023-04-19T13:26:04.598Z,15.40
2023-04-19T13:28:35.515Z,15.20
2023-04-19T13:31:03.982Z,15.10
2023-04-19T13:33:33.264Z,15.20
2023-04-19T13:36:01.285Z,15.20
2023-04-19T13:38:29.073Z,15.20
2023-04-19T13:40:57.140Z,15.20
2023-04-19T13:43:25.199Z,15.30
2023-04-19T13:45:53.213Z,15.40
2023-04-19T13:48:21.113Z,15.30
2023-04-19T13:50:51.747Z,17.80
2023-04-19T13:53:19.634Z,15.30
2023-04-19T13:55:47.612Z,15.20
2023-04-19T13:58:15.545Z,15.30
2023-04-19T14:00:43.435Z,15.40
2023-04-19T14:03:11.607Z,15.60
2023-04-19T14:05:39.523Z,15.70
2023-04-19T14:08:08.787Z,15.60
2023-04-19T14:15:57.670Z,15.50
2023-04-19T14:18:25.516Z,15.60
2023-04-19T14:20:53.534Z,15.80
2023-04-19T14:23:22.878Z,15.90
2023-04-19T14:25:50.908Z,15.00
2023-04-19T14:28:18.734Z,15.90
2023-04-19T14:30:46.515Z,15.90
2023-04-19T14:33:14.426Z,16.00
2023-04-19T14:35:43.094Z,16.00
2023-04-19T14:38:11.123Z,16.10
2023-04-19T14:40:40.344Z,16.20
2023-04-19T14:43:08.075Z,16.20
2023-04-19T14:45:38.211Z,16.00
2023-04-19T14:48:06.683Z,15.80
2023-04-19T14:53:02.683Z,15.70
2023-04-19T14:55:30.571Z,15.50
2023-04-19T14:57:59.784Z,15.60
2023-04-19T15:00:28.604Z,15.60
2023-04-19T15:02:56.864Z,15.70
2023-04-19T15:05:28.629Z,15.70
2023-04-19T15:07:56.552Z,15.90
2023-04-19T15:10:24.373Z,15.80
2023-04-19T15:12:52.239Z,15.90
2023-04-19T15:15:21.920Z,15.90
2023-04-19T15:17:51.096Z,15.80
2023-04-19T15:20:19.387Z,15.80
2023-04-19T15:22:47.265Z,15.70
2023-04-19T15:25:15.117Z,15.60
2023-04-19T15:27:43.353Z,15.60
2023-04-19T15:30:12.386Z,15.70
2023-04-19T15:32:43.993Z,15.70
2023-04-19T15:35:12.539Z,15.70
2023-04-19T15:37:41.172Z,15.60
2023-04-19T15:40:12.529Z,15.60
2023-04-19T15:42:40.602Z,15.70
2023-04-19T15:45:09.530Z,15.70
2023-04-19T15:47:41.521Z,15.60
2023-04-19T15:50:10.595Z,15.50
2023-04-19T15:52:38.365Z,15.40
2023-04-19T15:55:06.839Z,15.30
2023-04-19T15:57:34.608Z,15.20
2023-04-19T16:00:02.382Z,15.10
2023-04-19T16:02:30.250Z,15.00
2023-04-19T16:04:59.559Z,14.90
2023-04-19T16:07:28.366Z,14.70
2023-04-19T16:09:56.288Z,14.60
2023-04-19T16:14:53.535Z,14.50
2023-04-19T16:17:21.342Z,14.60
2023-04-19T16:19:49.156Z,14.60
2023-04-19T16:22:18.415Z,14.50
2023-04-19T16:24:47.346Z,14.40
2023-04-19T16:27:15.228Z,14.40
2023-04-19T16:29:43.016Z,14.30
2023-04-19T16:32:11.072Z,14.20
2023-04-19T16:34:38.914Z,14.20
2023-04-19T16:37:06.713Z,14.20
2023-04-19T16:39:35.864Z,14.20
2023-04-19T16:42:03.654Z,14.10
2023-04-19T16:44:31.428Z,14.10
2023-04-19T16:46:59.336Z,14.10
2023-04-19T16:49:27.109Z,14.10
2023-04-19T16:51:54.881Z,14.10
2023-04-19T16:56:52.317Z,14.00
2023-04-19T16:59:20.171Z,14.00
2023-04-19T17:01:48.060Z,14.00
2023-04-19T17:04:16.076Z,14.00
2023-04-19T17:06:44.170Z,14.00
2023-04-19T17:09:12.179Z,14.00
2023-04-19T17:11:39.918Z,14.00
2023-04-19T17:14:09.047Z,14.00
2023-04-19T17:16:36.878Z,14.00
2023-04-19T17:19:04.659Z,14.00
2023-04-19T17:21:32.483Z,14.00
2023-04-19T17:24:00.344Z,14.00
2023-04-19T17:26:28.798Z,13.80
2023-04-19T17:28:56.695Z,13.80
2023-04-19T17:31:25.933Z,13.60
2023-04-19T17:33:53.803Z,13.60
2023-04-19T17:36:21.570Z,13.60
2023-04-19T17:38:49.377Z,13.60
2023-04-19T17:41:17.196Z,13.60
2023-04-19T17:43:45.544Z,13.60
2023-04-19T17:46:13.981Z,13.60
2023-04-19T17:48:43.161Z,13.80
2023-04-19T17:51:10.938Z,14.00
2023-04-19T17:53:38.692Z,14.30
2023-04-19T17:56:06.722Z,14.30
2023-04-19T17:58:35.993Z,14.40
2023-04-19T18:01:04.306Z,14.30
2023-04-19T18:03:32.504Z,14.40
2023-04-19T18:06:02.101Z,14.30
2023-04-19T18:08:29.904Z,14.40
2023-04-19T18:10:57.696Z,14.40
2023-04-19T18:13:25.661Z,14.40
2023-04-19T18:15:53.498Z,14.20
2023-04-19T18:18:21.339Z,14.10
2023-04-19T18:20:49.711Z,14.00
2023-04-19T18:23:18.819Z,13.90
2023-04-19T18:25:53.644Z,13.70
2023-04-19T18:28:21.559Z,13.60
2023-04-19T18:30:49.396Z,13.40
2023-04-19T18:33:17.241Z,13.30
2023-04-19T18:35:45.614Z,13.10
2023-04-19T18:38:13.546Z,13.10
2023-04-19T18:40:42.722Z,13.00
2023-04-19T18:43:10.692Z,13.00
2023-04-19T18:45:38.569Z,9.90
2023-04-19T18:50:34.931Z,12.80
2023-04-19T18:53:03.213Z,12.80
2023-04-19T18:55:31.913Z,12.70
2023-04-19T18:58:01.616Z,12.60
2023-04-19T19:00:33.260Z,12.50
2023-04-19T19:03:02.847Z,12.40
2023-04-19T19:05:32.155Z,12.40
2023-04-19T19:08:00.620Z,12.40
2023-04-19T19:10:53.954Z,12.20
2023-04-19T19:13:19.692Z,12.20
2023-04-19T19:15:47.481Z,12.10
2023-04-19T19:18:16.753Z,12.10
2023-04-19T19:20:44.662Z,12.00
2023-04-19T19:25:44.231Z,11.90
2023-04-19T19:28:12.555Z,11.80
2023-04-19T19:30:45.018Z,11.80
2023-04-19T19:35:47.572Z,11.90
2023-04-19T19:38:16.373Z,11.80
2023-04-19T19:41:13.989Z,11.70
2023-04-19T19:43:32.060Z,11.60
2023-04-19T19:46:01.507Z,11.60
2023-04-19T19:48:30.361Z,11.60
2023-04-19T19:53:32.254Z,11.60
2023-04-19T19:56:00.588Z,11.60
2023-04-19T19:58:48.157Z,11.60
2023-04-19T20:01:18.283Z,11.60
2023-04-19T20:03:46.487Z,11.60
2023-04-19T20:08:47.120Z,11.70
2023-04-19T20:11:15.065Z,11.70
2023-04-19T20:13:42.972Z,15.60
2023-04-19T20:16:10.851Z,11.60
2023-04-19T20:18:42.388Z,11.60
2023-04-19T20:26:08.244Z,11.60
2023-04-19T20:28:36.378Z,11.60
2023-04-19T20:31:04.275Z,11.50
2023-04-19T20:33:34.911Z,11.50
2023-04-19T20:36:04.454Z,11.50
2023-04-19T20:38:34.399Z,11.60
2023-04-19T20:41:08.183Z,11.60
2023-04-19T20:43:36.421Z,11.60
2023-04-19T20:46:04.332Z,11.50
2023-04-19T20:48:34.160Z,11.40
2023-04-19T20:51:02.030Z,11.40
2023-04-19T20:56:08.136Z,11.30
2023-04-19T20:58:37.722Z,11.30
2023-04-19T21:01:05.876Z,11.20
2023-04-19T21:03:33.949Z,11.20
2023-04-19T21:06:01.784Z,11.20
2023-04-19T21:08:36.170Z,11.20
2023-04-19T21:11:04.174Z,11.20
2023-04-19T21:13:33.037Z,11.20
2023-04-19T21:16:00.879Z,11.10
2023-04-19T21:18:31.339Z,11.10
2023-04-19T21:21:00.466Z,11.10
2023-04-19T21:23:28.381Z,11.10
2023-04-19T21:26:11.020Z,11.10
2023-04-19T21:31:11.713Z,11.00
2023-04-19T21:33:39.762Z,11.00
2023-04-19T21:36:08.006Z,11.00
2023-04-19T21:38:35.963Z,10.90
2023-04-19T21:41:07.052Z,10.90
2023-04-19T21:43:34.990Z,10.90
2023-04-19T21:46:04.976Z,10.90
2023-04-19T21:51:01.946Z,10.80
2023-04-19T21:53:29.744Z,10.80
2023-04-19T21:58:27.197Z,10.70
2023-04-19T22:00:55.080Z,10.60
2023-04-19T22:03:23.040Z,10.50
2023-04-19T22:05:51.017Z,10.50
2023-04-19T22:08:18.847Z,10.50
2023-04-19T22:10:46.699Z,10.50
2023-04-19T22:13:17.463Z,10.50
2023-04-19T22:15:46.564Z,10.40
2023-04-19T22:18:14.338Z,10.40
2023-04-19T22:20:42.137Z,10.40
2023-04-19T22:23:09.959Z,10.40
2023-04-19T22:25:37.865Z,10.40
2023-04-19T22:28:07.508Z,10.40
2023-04-19T22:33:05.420Z,10.30
2023-04-19T22:35:33.228Z,10.30
2023-04-19T22:38:01.321Z,10.20
2023-04-19T22:40:29.133Z,10.20
2023-04-19T22:45:24.976Z,10.10
2023-04-19T22:47:52.781Z,10.10
2023-04-19T22:50:23.444Z,10.00
2023-04-19T22:52:51.662Z,10.00
2023-04-19T22:55:19.490Z,10.00
2023-04-19T22:57:47.272Z,10.00
2023-04-19T23:00:16.800Z,9.90
2023-04-19T23:02:44.742Z,9.90
2023-04-19T23:05:12.711Z,9.80
2023-04-19T23:07:42.932Z,9.80
2023-04-19T23:10:12.238Z,9.80
2023-04-19T23:12:40.010Z,9.70
2023-04-19T23:15:10.405Z,9.60
2023-04-19T23:17:39.370Z,13.60
2023-04-19T23:20:09.496Z,9.60
2023-04-19T23:22:37.398Z,9.60
2023-04-19T23:25:07.645Z,9.50
2023-04-19T23:27:35.865Z,9.50
2023-04-19T23:30:03.806Z,9.50
2023-04-19T23:32:31.745Z,9.50
2023-04-19T23:34:59.557Z,9.40
2023-04-19T23:37:27.359Z,9.40
2023-04-19T23:39:55.070Z,9.30
2023-04-19T23:42:24.138Z,9.30
2023-04-19T23:44:54.283Z,9.20
2023-04-19T23:52:22.508Z,9.10
2023-04-19T23:54:50.555Z,9.10
2023-04-19T23:57:19.767Z,9.10
2023-04-19T23:59:49.045Z,9.00
